Trent, South Dakota
Current Conditions -  °F | °C
As of 7:34 PM on Monday 24 Nov 2014 (Local Time) from KPQN Reporting Station
Clear Clear  
Wind Chill:   Ceiling: Unl
Heat Index: 19°   Visibility: 10mi
Dew Point: 12°   Wind: 20mph
Humidity: 74%   Direction: 340°NNW
Pressure: 29.91"   Gusts: 33mph
Location:  43.91°N, 96.65°W
Report Text: KPQN 250134Z AUTO 34017G29KT 10SM CLR M07/M11 A2991 RMK AO2
Loading
Personal Weather Stations






























Interactive Weather Map New forecast layout! Learn more

10-Day Weather Forecast

Advertisements
Track Severe Weather on mobile